Altoona, Pennsylvania
Current Conditions -  °F | °C
As of 10:53 PM on Wednesday 28 Jan 2015 (Local Time) from KAOO Reporting Station
Clear Clear  
Wind Chill: -11°   Ceiling: Unl
Heat Index: -11°   Visibility: 10mi
Dew Point: -16°   Wind: 3mph
Humidity: 70%   Direction: 200°SSW
Pressure: 30.27"   Gusts: NA
Location:  40.51°N, 78.4°W
Report Text: KAOO 290353Z AUTO 20003KT 10SM CLR M11/M16 A3027 RMK AO2 SLP281 T11111156
Loading
Personal Weather Stations






























Interactive Weather Map New forecast layout! Learn more

10-Day Weather Forecast

Advertisements
Track Severe Weather on mobile